Time;durP1;ratioP1;P1;durP2;ratioP2;P2;SDS_P1;SDS_P2;PMS_P1;PMS_P2;Temp;Humidity;BMP_temperature;BMP_pressure;BME280_temperature;BME280_humidity;BME280_pressure;Samples;Min_cycle;Max_cycle;Signal;HPM_P1;HPM_P2
2023/08/21 00:01:32;;;;;;;7.90;7.20;;;25.40;99.90;;;;;;4992456;28;20183;-71
2023/08/21 00:03:58;;;;;;;8.00;7.43;;;25.30;99.90;;;;;;4989884;28;20203;-71
2023/08/21 00:06:24;;;;;;;8.20;7.50;;;25.30;99.90;;;;;;4991681;28;20699;-70
2023/08/21 00:08:49;;;;;;;9.20;8.40;;;25.30;99.90;;;;;;4991157;28;20231;-71
2023/08/21 00:11:15;;;;;;;8.23;7.53;;;25.30;99.90;;;;;;4990478;28;20180;-71
2023/08/21 00:13:44;;;;;;;8.60;7.90;;;25.30;99.90;;;;;;4988198;28;20223;-70
2023/08/21 00:16:10;;;;;;;7.83;7.13;;;25.20;99.90;;;;;;4992848;28;20172;-70
2023/08/21 00:18:36;;;;;;;8.70;7.10;;;25.20;99.90;;;;;;4991139;28;20434;-71
2023/08/21 00:21:01;;;;;;;8.20;7.50;;;25.10;99.90;;;;;;4992588;28;20480;-71
2023/08/21 00:23:27;;;;;;;8.40;7.77;;;25.10;99.90;;;;;;4990615;28;20203;-70
2023/08/21 00:25:52;;;;;;;9.33;7.60;;;25.00;99.90;;;;;;4991369;28;20184;-72
2023/08/21 00:28:18;;;;;;;8.93;8.03;;;25.00;99.90;;;;;;4990649;28;20187;-71
2023/08/21 00:30:43;;;;;;;8.90;8.20;;;24.90;99.90;;;;;;4990184;28;20657;-70
2023/08/21 00:33:09;;;;;;;8.07;7.33;;;24.90;99.90;;;;;;4989665;28;20221;-70
2023/08/21 00:35:34;;;;;;;8.13;7.53;;;24.90;99.90;;;;;;4991109;28;20178;-71
2023/08/21 00:38:00;;;;;;;8.67;7.97;;;24.80;99.90;;;;;;4992373;28;20172;-70
2023/08/21 00:40:25;;;;;;;9.83;8.93;;;24.80;99.90;;;;;;4991749;28;20222;-70
2023/08/21 00:42:51;;;;;;;8.20;7.40;;;24.80;99.90;;;;;;4991510;28;20253;-70
2023/08/21 00:45:16;;;;;;;9.00;8.30;;;24.70;99.90;;;;;;4989893;28;20176;-71
2023/08/21 00:47:43;;;;;;;7.90;7.30;;;24.70;99.90;;;;;;4991661;28;20191;-71
2023/08/21 00:50:11;;;;;;;8.33;7.73;;;24.70;99.90;;;;;;4991408;28;20202;-71
2023/08/21 00:52:39;;;;;;;8.80;8.10;;;24.80;99.90;;;;;;4988948;28;20475;-71
2023/08/21 00:55:06;;;;;;;7.90;7.30;;;24.80;99.90;;;;;;4987170;28;20806;-71
2023/08/21 00:57:31;;;;;;;8.03;7.43;;;24.70;99.90;;;;;;4992111;28;20418;-69
2023/08/21 00:59:57;;;;;;;10.30;9.13;;;24.70;99.90;;;;;;4991595;28;20425;-70
2023/08/21 01:02:23;;;;;;;9.10;8.37;;;24.60;99.90;;;;;;4989627;28;20188;-71
2023/08/21 01:04:48;;;;;;;8.80;8.03;;;24.50;99.90;;;;;;4989602;28;20267;-71
2023/08/21 01:07:14;;;;;;;8.73;8.10;;;24.50;99.90;;;;;;4992033;28;20190;-71
2023/08/21 01:09:49;;;;;;;8.47;7.87;;;24.50;99.90;;;;;;4990529;28;20187;-71
2023/08/21 01:12:30;;;;;;;9.20;8.53;;;24.50;99.90;;;;;;4990207;28;20207;-70
2023/08/21 01:15:05;;;;;;;7.77;7.07;;;24.50;99.90;;;;;;4990930;28;20454;-71
2023/08/21 01:17:36;;;;;;;8.00;7.40;;;24.50;99.90;;;;;;4988860;28;20573;-70
2023/08/21 01:20:02;;;;;;;7.83;7.23;;;24.40;99.90;;;;;;4988421;28;20453;-72
2023/08/21 01:22:45;;;;;;;9.23;8.23;;;24.40;99.90;;;;;;4991685;28;20608;-71
2023/08/21 01:25:11;;;;;;;8.10;7.50;;;24.40;99.90;;;;;;4994559;28;20449;-71
2023/08/21 01:27:40;;;;;;;8.73;8.00;;;24.40;99.90;;;;;;4995546;28;20913;-70
2023/08/21 01:30:07;;;;;;;8.53;7.93;;;24.40;99.90;;;;;;4993700;28;20218;-70
2023/08/21 01:32:39;;;;;;;9.10;8.37;;;24.40;99.90;;;;;;4994312;28;20453;-72
2023/08/21 01:35:07;;;;;;;9.30;8.17;;;24.40;99.90;;;;;;4993376;28;20868;-71
2023/08/21 01:37:34;;;;;;;9.57;8.70;;;24.30;99.90;;;;;;4991896;28;20995;-70
2023/08/21 01:39:59;;;;;;;8.93;8.23;;;24.30;99.90;;;;;;4994501;28;20423;-72
2023/08/21 01:42:25;;;;;;;9.13;8.33;;;24.30;99.90;;;;;;4995112;28;20473;-71
2023/08/21 01:44:50;;;;;;;8.33;7.60;;;24.20;99.90;;;;;;4995273;28;20180;-71
2023/08/21 01:47:16;;;;;;;9.47;8.57;;;24.10;99.90;;;;;;4994021;28;20194;-71
2023/08/21 01:49:41;;;;;;;8.30;7.60;;;24.10;99.90;;;;;;4991983;28;20611;-71
2023/08/21 01:52:07;;;;;;;8.63;7.93;;;24.00;99.90;;;;;;4990660;28;20188;-71
2023/08/21 01:54:32;;;;;;;9.97;9.07;;;24.00;99.90;;;;;;4992010;28;20207;-71
2023/08/21 01:56:58;;;;;;;9.33;8.27;;;24.00;99.90;;;;;;4993487;28;20188;-71
2023/08/21 01:59:24;;;;;;;9.33;8.60;;;24.00;99.90;;;;;;4993744;28;20183;-72
2023/08/21 02:01:49;;;;;;;8.63;7.90;;;24.00;99.90;;;;;;4994365;28;20544;-71
2023/08/21 02:04:15;;;;;;;9.80;8.63;;;24.00;99.90;;;;;;4994652;28;20473;-72
2023/08/21 02:06:40;;;;;;;8.57;7.97;;;24.00;99.90;;;;;;4992058;28;20768;-71
2023/08/21 02:09:06;;;;;;;8.53;7.83;;;24.00;99.90;;;;;;4993868;28;20175;-71
2023/08/21 02:11:32;;;;;;;9.20;8.50;;;24.00;99.90;;;;;;4993930;28;20225;-70
2023/08/21 02:13:57;;;;;;;9.10;8.40;;;23.90;99.90;;;;;;4993528;28;20216;-70
2023/08/21 02:16:23;;;;;;;8.50;7.80;;;23.90;99.90;;;;;;4993728;28;20238;-70
2023/08/21 02:18:48;;;;;;;9.67;8.93;;;23.80;99.90;;;;;;4992882;28;20192;-71
2023/08/21 02:21:14;;;;;;;8.60;7.90;;;23.70;99.90;;;;;;4994165;28;20642;-71
2023/08/21 02:23:39;;;;;;;9.23;8.50;;;23.70;99.90;;;;;;4992088;28;20211;-71
2023/08/21 02:26:05;;;;;;;8.80;8.10;;;23.70;99.90;;;;;;4994471;28;20210;-71
2023/08/21 02:28:30;;;;;;;10.97;9.00;;;23.70;99.90;;;;;;4991819;28;20240;-71
2023/08/21 02:30:56;;;;;;;11.47;9.00;;;23.70;99.90;;;;;;4994279;28;20195;-71
2023/08/21 02:33:21;;;;;;;9.33;8.53;;;23.60;99.90;;;;;;4991979;28;20195;-71
2023/08/21 02:35:47;;;;;;;10.30;8.93;;;23.50;99.90;;;;;;4991858;28;20187;-70
2023/08/21 02:38:12;;;;;;;9.23;8.40;;;23.40;99.90;;;;;;4992957;28;20187;-72
2023/08/21 02:40:38;;;;;;;9.50;8.70;;;23.40;99.90;;;;;;4992221;28;20287;-71
2023/08/21 02:43:04;;;;;;;8.60;7.90;;;23.30;99.90;;;;;;4993080;28;20214;-70
2023/08/21 02:45:30;;;;;;;10.40;9.43;;;23.30;99.90;;;;;;4984748;28;20182;-70
2023/08/21 02:47:56;;;;;;;9.93;9.20;;;23.20;99.90;;;;;;4992817;28;20172;-71
2023/08/21 02:50:21;;;;;;;9.43;8.50;;;23.20;99.90;;;;;;4992389;28;20791;-71
2023/08/21 02:52:47;;;;;;;8.50;7.80;;;23.20;99.90;;;;;;4993015;28;20729;-71
2023/08/21 02:55:13;;;;;;;9.47;8.73;;;23.30;99.90;;;;;;4989602;28;20253;-71
2023/08/21 02:57:39;;;;;;;9.40;8.60;;;23.30;99.90;;;;;;4991125;28;20270;-70
2023/08/21 03:00:07;;;;;;;9.10;8.33;;;23.30;99.90;;;;;;4991625;28;20545;-71
2023/08/21 03:02:32;;;;;;;9.50;8.63;;;23.30;99.90;;;;;;4991435;28;20293;-70
2023/08/21 03:04:58;;;;;;;8.87;8.13;;;23.20;99.90;;;;;;4992866;28;20522;-71
2023/08/21 03:07:23;;;;;;;11.03;9.93;;;23.10;99.90;;;;;;4993910;28;20177;-70
2023/08/21 03:09:50;;;;;;;10.93;8.73;;;23.10;99.90;;;;;;4991864;28;20658;-71
2023/08/21 03:12:16;;;;;;;9.13;8.40;;;23.00;99.90;;;;;;4991874;28;20183;-70
2023/08/21 03:14:41;;;;;;;9.43;8.53;;;23.00;99.90;;;;;;4989843;28;20480;-71
2023/08/21 03:17:07;;;;;;;10.30;9.30;;;23.00;99.90;;;;;;4991063;28;20653;-70
2023/08/21 03:19:32;;;;;;;11.07;9.77;;;22.90;99.90;;;;;;4975185;28;20186;-71
2023/08/21 03:21:58;;;;;;;11.17;9.77;;;22.90;99.90;;;;;;4992216;28;20557;-71
2023/08/21 03:24:24;;;;;;;9.90;9.13;;;22.80;99.90;;;;;;4993612;28;20677;-70
2023/08/21 03:26:49;;;;;;;9.37;8.57;;;22.80;99.90;;;;;;4990995;28;20195;-70
2023/08/21 03:29:15;;;;;;;9.60;8.80;;;22.80;99.90;;;;;;4989808;28;20214;-72
2023/08/21 03:31:40;;;;;;;11.30;9.77;;;22.70;99.90;;;;;;4992959;28;20186;-70
2023/08/21 03:34:06;;;;;;;12.70;10.07;;;22.70;99.90;;;;;;4992478;28;20236;-70
2023/08/21 03:36:32;;;;;;;9.80;9.03;;;22.70;99.90;;;;;;4991402;28;20222;-71
2023/08/21 03:38:58;;;;;;;9.67;8.90;;;22.80;99.90;;;;;;4990991;28;20184;-70
2023/08/21 03:41:24;;;;;;;9.67;8.60;;;22.70;99.90;;;;;;4992081;28;20203;-71
2023/08/21 03:43:49;;;;;;;10.00;9.20;;;22.80;99.90;;;;;;4992797;28;20983;-72
2023/08/21 03:46:15;;;;;;;10.60;9.70;;;22.80;99.90;;;;;;4989801;28;20207;-70
2023/08/21 03:48:40;;;;;;;9.03;8.40;;;22.80;99.90;;;;;;4992394;28;20263;-70
2023/08/21 03:51:06;;;;;;;9.40;8.27;;;22.80;99.90;;;;;;4991997;28;20179;-70
2023/08/21 03:53:31;;;;;;;9.30;8.60;;;22.80;99.90;;;;;;4992463;28;20205;-71
2023/08/21 03:55:57;;;;;;;8.70;8.00;;;22.80;99.90;;;;;;4991105;28;20183;-71
2023/08/21 03:58:25;;;;;;;10.23;9.33;;;22.70;99.90;;;;;;4989852;28;20188;-70
2023/08/21 04:00:50;;;;;;;9.60;8.80;;;22.60;99.90;;;;;;4991723;28;20242;-70
2023/08/21 04:03:16;;;;;;;9.97;9.07;;;22.60;99.90;;;;;;4977871;28;20999;-70
2023/08/21 04:05:41;;;;;;;9.60;8.70;;;22.50;99.90;;;;;;4990829;28;20215;-70
2023/08/21 04:08:07;;;;;;;10.77;9.13;;;22.60;99.90;;;;;;4989651;28;20262;-70
2023/08/21 04:10:33;;;;;;;10.43;9.23;;;22.60;99.90;;;;;;4991134;28;20258;-71
2023/08/21 04:12:58;;;;;;;10.60;9.70;;;22.60;99.90;;;;;;4992603;28;20282;-71
2023/08/21 04:15:24;;;;;;;9.77;8.90;;;22.50;99.90;;;;;;4991538;28;20203;-70
2023/08/21 04:17:50;;;;;;;12.80;9.43;;;22.50;99.90;;;;;;4989666;28;20184;-70
2023/08/21 04:20:16;;;;;;;10.60;9.57;;;22.50;99.90;;;;;;4985709;28;21089;-71
2023/08/21 04:22:41;;;;;;;9.30;8.60;;;22.50;99.90;;;;;;4992540;28;20195;-71
2023/08/21 04:25:07;;;;;;;10.27;9.27;;;22.40;99.90;;;;;;4990825;28;20183;-70
2023/08/21 04:27:33;;;;;;;11.40;10.23;;;22.30;99.90;;;;;;4990796;28;20168;-70
2023/08/21 04:29:59;;;;;;;10.03;9.23;;;22.20;99.90;;;;;;4991691;28;20168;-70
2023/08/21 04:32:25;;;;;;;10.87;9.27;;;22.20;99.90;;;;;;4990436;28;20237;-71
2023/08/21 04:34:51;;;;;;;9.83;9.03;;;22.20;99.90;;;;;;4990438;28;20468;-70
2023/08/21 04:37:16;;;;;;;10.33;8.77;;;22.20;99.90;;;;;;4990580;28;20443;-71
2023/08/21 04:39:42;;;;;;;10.60;9.70;;;22.20;99.90;;;;;;4989928;28;20199;-70
2023/08/21 04:42:07;;;;;;;10.23;9.43;;;22.30;99.90;;;;;;4992286;28;20641;-70
2023/08/21 04:44:33;;;;;;;10.17;9.40;;;22.40;99.90;;;;;;4990727;28;20204;-71
2023/08/21 04:47:19;;;;;;;10.03;9.27;;;22.40;99.90;;;;;;4992288;28;20251;-70
2023/08/21 04:49:45;;;;;;;10.40;9.50;;;22.40;99.90;;;;;;4991685;28;20222;-71
2023/08/21 04:52:10;;;;;;;11.03;9.47;;;22.40;99.90;;;;;;4989824;28;20439;-71
2023/08/21 04:54:36;;;;;;;10.80;9.67;;;22.40;99.90;;;;;;4989808;28;20573;-72
2023/08/21 04:57:01;;;;;;;11.10;10.10;;;22.30;99.90;;;;;;4991420;28;20179;-71
2023/08/21 04:59:27;;;;;;;10.67;9.03;;;22.40;99.90;;;;;;4993712;28;20188;-71
2023/08/21 05:01:52;;;;;;;9.63;8.73;;;22.50;99.90;;;;;;4992850;28;20230;-71
2023/08/21 05:04:18;;;;;;;9.40;8.70;;;22.60;99.90;;;;;;4995853;28;20591;-70
2023/08/21 05:06:43;;;;;;;9.47;8.70;;;22.70;99.90;;;;;;4995665;28;20180;-71
2023/08/21 05:09:09;;;;;;;9.90;8.90;;;22.80;99.90;;;;;;4995266;28;20168;-72
2023/08/21 05:11:34;;;;;;;10.63;9.83;;;22.90;99.90;;;;;;4995979;28;20628;-71
2023/08/21 05:14:00;;;;;;;10.03;9.13;;;23.00;99.90;;;;;;4996449;23;20576;-66
2023/08/21 05:16:25;;;;;;;10.67;9.67;;;23.10;99.90;;;;;;4996658;28;20175;-66
2023/08/21 05:18:51;;;;;;;15.03;9.17;;;23.20;99.90;;;;;;4993542;28;20186;-66
2023/08/21 05:21:16;;;;;;;9.77;8.83;;;23.30;99.90;;;;;;4993477;28;20172;-66
2023/08/21 05:23:42;;;;;;;8.97;8.10;;;23.50;99.90;;;;;;4995260;28;20210;-65
2023/08/21 05:26:07;;;;;;;10.40;9.60;;;23.60;99.90;;;;;;4994790;28;20171;-66
2023/08/21 05:28:33;;;;;;;10.07;9.20;;;23.70;99.90;;;;;;4994482;28;20180;-66
2023/08/21 05:30:58;;;;;;;10.30;8.63;;;23.80;99.90;;;;;;4993777;28;20203;-66
2023/08/21 05:33:24;;;;;;;9.73;9.00;;;24.00;99.90;;;;;;4993053;28;20230;-66
2023/08/21 05:35:49;;;;;;;11.23;10.30;;;24.20;99.90;;;;;;4995263;28;20251;-65
2023/08/21 05:38:15;;;;;;;9.90;9.10;;;24.30;99.90;;;;;;4993126;28;20271;-66
2023/08/21 05:40:41;;;;;;;10.43;9.53;;;24.40;99.90;;;;;;4993387;28;20180;-66
2023/08/21 05:43:08;;;;;;;11.30;10.27;;;24.50;99.90;;;;;;4992858;28;20291;-66
2023/08/21 05:45:34;;;;;;;11.67;9.20;;;24.70;99.90;;;;;;4993365;28;20473;-65
2023/08/21 05:47:59;;;;;;;10.47;9.47;;;24.80;99.90;;;;;;4993252;28;20430;-66
2023/08/21 05:50:25;;;;;;;10.50;9.60;;;24.90;99.90;;;;;;4993492;28;20664;-66
2023/08/21 05:52:50;;;;;;;9.93;9.23;;;25.00;99.90;;;;;;4994807;28;20640;-69
2023/08/21 05:55:16;;;;;;;11.70;10.80;;;25.10;99.90;;;;;;4991420;28;20208;-69
2023/08/21 05:57:41;;;;;;;13.37;11.77;;;25.10;99.90;;;;;;4992882;28;20180;-71
2023/08/21 06:00:10;;;;;;;10.03;9.13;;;25.20;99.90;;;;;;4993832;28;20226;-69
2023/08/21 06:02:36;;;;;;;10.50;8.73;;;25.30;99.90;;;;;;4993070;28;20207;-70
2023/08/21 06:05:02;;;;;;;10.90;10.10;;;25.40;99.90;;;;;;4991798;28;20462;-70
2023/08/21 06:07:27;;;;;;;9.97;8.63;;;25.50;99.90;;;;;;4993481;28;20172;-70
2023/08/21 06:09:53;;;;;;;9.93;8.97;;;25.70;99.90;;;;;;4991210;28;20445;-70
2023/08/21 06:12:18;;;;;;;9.17;8.37;;;25.90;99.90;;;;;;4990352;28;20207;-71
2023/08/21 06:14:44;;;;;;;9.23;8.33;;;26.20;99.90;;;;;;4992486;28;20215;-71
2023/08/21 06:17:10;;;;;;;9.53;8.70;;;26.40;99.90;;;;;;4994464;28;20176;-71
2023/08/21 06:19:36;;;;;;;12.37;8.93;;;26.60;99.90;;;;;;4992141;28;20656;-70
2023/08/21 06:22:02;;;;;;;10.50;9.60;;;26.80;99.90;;;;;;4994368;28;20434;-70
2023/08/21 06:24:28;;;;;;;14.23;8.30;;;26.90;99.90;;;;;;4994472;28;20191;-71
2023/08/21 06:26:53;;;;;;;10.90;10.10;;;27.20;99.90;;;;;;4993916;28;20960;-70
2023/08/21 06:29:20;;;;;;;10.27;9.27;;;27.40;99.90;;;;;;4993671;28;20168;-70
2023/08/21 06:31:46;;;;;;;9.07;8.37;;;27.60;99.90;;;;;;4994293;28;20188;-70
2023/08/21 06:34:12;;;;;;;8.73;7.93;;;27.70;99.90;;;;;;4994135;28;20815;-70
2023/08/21 06:36:38;;;;;;;9.97;8.57;;;27.70;99.90;;;;;;4992371;28;20179;-71
2023/08/21 06:39:03;;;;;;;9.53;7.83;;;27.90;99.90;;;;;;4993398;28;20180;-70
2023/08/21 06:41:29;;;;;;;9.23;8.07;;;28.00;99.90;;;;;;4993933;28;20222;-70
2023/08/21 06:43:55;;;;;;;8.40;7.60;;;28.10;99.90;;;;;;4994037;28;20216;-70
2023/08/21 06:46:21;;;;;;;8.33;7.53;;;28.20;99.90;;;;;;4994028;28;20234;-70
2023/08/21 06:48:46;;;;;;;12.07;8.83;;;28.40;99.90;;;;;;4992405;28;20415;-70
2023/08/21 06:51:12;;;;;;;12.80;8.37;;;28.60;99.90;;;;;;4988394;28;20179;-70
2023/08/21 06:53:37;;;;;;;8.67;7.97;;;28.70;99.90;;;;;;4993167;28;20243;-70
2023/08/21 06:56:03;;;;;;;8.70;7.83;;;28.80;99.90;;;;;;4993666;28;20172;-70
2023/08/21 06:58:29;;;;;;;10.10;8.40;;;28.90;99.90;;;;;;4992840;28;20198;-70
2023/08/21 07:00:55;;;;;;;9.00;8.20;;;29.00;99.90;;;;;;4993197;28;20551;-71
2023/08/21 07:03:21;;;;;;;10.43;8.20;;;29.00;99.90;;;;;;4990909;28;20207;-70
2023/08/21 07:05:55;;;;;;;7.23;6.63;;;29.10;99.90;;;;;;4993262;28;20434;-70
2023/08/21 07:08:20;;;;;;;9.27;8.47;;;29.30;99.90;;;;;;4989729;28;20927;-71
2023/08/21 07:10:46;;;;;;;9.33;8.40;;;29.50;99.90;;;;;;4992706;28;20519;-71
2023/08/21 07:13:11;;;;;;;7.97;7.37;;;29.70;99.90;;;;;;4992933;28;20207;-70
2023/08/21 07:15:37;;;;;;;9.13;8.30;;;29.70;99.90;;;;;;4975721;28;20210;-71
2023/08/21 07:18:02;;;;;;;8.33;7.77;;;29.90;99.90;;;;;;4979667;28;20278;-71
2023/08/21 07:20:28;;;;;;;7.43;6.70;;;30.00;99.90;;;;;;4991226;28;20193;-70
2023/08/21 07:22:54;;;;;;;8.00;7.23;;;30.00;99.90;;;;;;4992969;28;20330;-70
2023/08/21 07:25:19;;;;;;;8.20;7.50;;;30.30;99.90;;;;;;4992962;28;20195;-69
2023/08/21 07:27:45;;;;;;;9.10;8.17;;;30.60;99.90;;;;;;4992872;28;20179;-70
2023/08/21 07:30:10;;;;;;;8.47;7.90;;;30.80;99.90;;;;;;4992274;28;20167;-70
2023/08/21 07:32:36;;;;;;;8.00;7.37;;;31.00;99.90;;;;;;4992846;28;20250;-69
2023/08/21 07:35:02;;;;;;;8.40;7.60;;;31.20;99.90;;;;;;4989334;28;20295;-70
2023/08/21 07:37:27;;;;;;;8.33;7.63;;;31.40;99.90;;;;;;4982571;28;20828;-70
2023/08/21 07:39:55;;;;;;;10.57;7.50;;;31.60;99.90;;;;;;4992061;28;20179;-70
2023/08/21 07:42:21;;;;;;;8.60;7.90;;;31.60;99.90;;;;;;4992540;28;20582;-70
2023/08/21 07:44:46;;;;;;;8.67;7.97;;;31.90;99.90;;;;;;4992760;28;20446;-70
2023/08/21 07:47:12;;;;;;;8.10;7.43;;;32.10;99.90;;;;;;4992755;28;20230;-70
2023/08/21 07:49:37;;;;;;;8.20;7.70;;;32.40;99.90;;;;;;4990869;28;20176;-70
2023/08/21 07:52:04;;;;;;;7.63;7.13;;;32.40;99.90;;;;;;4990252;28;20533;-71
2023/08/21 07:54:29;;;;;;;8.47;7.83;;;32.30;99.90;;;;;;4992366;28;20290;-70
2023/08/21 07:56:55;;;;;;;7.60;7.03;;;32.50;99.90;;;;;;4991360;28;20526;-70
2023/08/21 07:59:20;;;;;;;8.93;8.23;;;32.70;99.90;;;;;;4990135;28;20171;-71
2023/08/21 08:01:46;;;;;;;9.50;8.70;;;32.90;99.90;;;;;;4992677;28;20258;-70
2023/08/21 08:04:11;;;;;;;8.63;7.70;;;32.90;99.90;;;;;;4992345;28;20211;-70
2023/08/21 08:06:37;;;;;;;9.23;8.37;;;33.10;99.90;;;;;;4991672;28;20183;-71
2023/08/21 08:09:05;;;;;;;8.27;7.77;;;33.40;99.90;;;;;;4991693;28;20315;-70
2023/08/21 08:11:31;;;;;;;8.90;8.17;;;33.70;99.90;;;;;;4992502;28;20168;-70
2023/08/21 08:13:56;;;;;;;8.63;7.73;;;34.30;99.90;;;;;;4992471;28;20982;-70
2023/08/21 08:16:22;;;;;;;9.03;8.20;;;34.70;99.90;;;;;;4992473;28;20182;-70
2023/08/21 08:18:48;;;;;;;12.10;8.40;;;35.20;99.90;;;;;;4991752;28;20266;-70
2023/08/21 08:21:14;;;;;;;9.57;8.77;;;35.30;99.20;;;;;;4992635;28;20556;-70
2023/08/21 08:23:39;;;;;;;10.47;8.97;;;35.10;99.40;;;;;;4990358;28;20473;-70
2023/08/21 08:26:05;;;;;;;8.77;8.13;;;34.80;99.10;;;;;;4992120;28;20434;-70
2023/08/21 08:28:30;;;;;;;8.77;8.03;;;34.80;99.10;;;;;;4991719;28;20187;-71
2023/08/21 08:30:57;;;;;;;9.60;8.80;;;35.10;98.70;;;;;;4992465;28;20297;-69
2023/08/21 08:33:23;;;;;;;9.83;9.10;;;35.10;97.30;;;;;;4994419;28;20936;-70
2023/08/21 08:35:48;;;;;;;8.83;8.23;;;34.80;97.70;;;;;;4996498;28;20509;-70
2023/08/21 08:38:14;;;;;;;9.20;8.37;;;34.60;97.90;;;;;;4993953;28;20178;-70
2023/08/21 08:40:45;;;;;;;10.33;8.87;;;34.80;97.50;;;;;;4986983;28;20172;-70
2023/08/21 08:43:14;;;;;;;9.43;8.50;;;34.60;97.40;;;;;;4996241;28;20695;-70
2023/08/21 08:45:41;;;;;;;9.20;8.50;;;34.40;97.80;;;;;;4996109;28;20421;-70
2023/08/21 08:48:07;;;;;;;10.00;9.20;;;34.60;97.60;;;;;;4992902;28;20443;-70
2023/08/21 08:50:34;;;;;;;9.60;8.80;;;34.30;97.70;;;;;;4995714;28;20422;-70
2023/08/21 08:53:00;;;;;;;9.90;9.10;;;34.10;98.70;;;;;;4996044;28;20426;-71
2023/08/21 08:55:26;;;;;;;10.97;9.60;;;34.10;98.40;;;;;;4996040;28;20485;-70
2023/08/21 08:57:53;;;;;;;9.10;8.50;;;34.40;98.60;;;;;;4995950;28;20431;-69
2023/08/21 09:00:22;;;;;;;10.70;9.20;;;34.80;97.70;;;;;;4995238;28;20699;-70
2023/08/21 09:02:47;;;;;;;10.10;9.20;;;35.20;96.90;;;;;;4994762;28;20462;-69
2023/08/21 09:05:13;;;;;;;9.97;8.30;;;35.20;96.20;;;;;;4995968;28;20454;-69
2023/08/21 09:07:39;;;;;;;10.00;9.07;;;35.10;96.10;;;;;;4995850;28;20179;-70
2023/08/21 09:10:12;;;;;;;9.50;8.80;;;35.20;96.20;;;;;;4995102;28;20168;-70
2023/08/21 09:12:38;;;;;;;8.77;7.97;;;35.20;96.00;;;;;;4995796;28;20180;-70
2023/08/21 09:15:08;;;;;;;11.50;10.57;;;35.30;95.90;;;;;;4995965;28;21072;-70
2023/08/21 09:17:33;;;;;;;11.83;9.03;;;35.70;95.10;;;;;;4993910;28;20447;-70
2023/08/21 09:20:07;;;;;;;9.50;8.60;;;36.40;94.10;;;;;;4994370;28;20442;-70
2023/08/21 09:22:32;;;;;;;9.33;8.57;;;36.80;92.70;;;;;;4995114;28;20204;-68
2023/08/21 09:25:10;;;;;;;8.47;7.70;;;37.20;91.20;;;;;;4995480;28;20985;-70
2023/08/21 09:27:38;;;;;;;9.77;8.87;;;37.70;89.10;;;;;;4995396;28;20176;-69
2023/08/21 09:30:15;;;;;;;8.87;8.00;;;38.00;86.60;;;;;;4993609;28;20434;-69
2023/08/21 09:32:59;;;;;;;8.07;7.27;;;38.20;86.30;;;;;;4988657;28;20418;-69
2023/08/21 09:35:26;;;;;;;9.00;8.20;;;38.30;82.60;;;;;;4995323;28;20510;-68
2023/08/21 09:37:54;;;;;;;8.30;7.70;;;37.90;82.20;;;;;;4977709;28;20431;-69
2023/08/21 09:40:21;;;;;;;9.43;8.50;;;37.90;80.50;;;;;;4994674;28;20461;-68
2023/08/21 09:42:55;;;;;;;9.80;8.80;;;37.80;81.00;;;;;;4995282;28;20466;-68
2023/08/21 09:45:25;;;;;;;10.33;8.20;;;38.50;80.00;;;;;;4994174;28;20533;-68
2023/08/21 09:47:52;;;;;;;8.70;8.00;;;38.90;76.60;;;;;;4993428;28;20443;-69
2023/08/21 09:50:19;;;;;;;8.33;7.17;;;39.30;75.20;;;;;;4994416;28;20526;-69
2023/08/21 09:52:45;;;;;;;7.20;6.60;;;39.70;72.20;;;;;;4993692;28;20443;-68
2023/08/21 09:55:13;;;;;;;7.43;6.40;;;40.10;70.20;;;;;;4993805;28;20454;-73
2023/08/21 09:57:40;;;;;;;7.43;6.77;;;39.70;71.20;;;;;;4994494;28;20226;-73
2023/08/21 10:00:15;;;;;;;6.93;6.53;;;40.10;69.10;;;;;;4993735;28;20446;-72
2023/08/21 10:02:49;;;;;;;8.27;7.50;;;40.30;67.80;;;;;;4993212;28;20500;-74
2023/08/21 10:05:17;;;;;;;8.30;7.57;;;40.60;66.40;;;;;;4991828;28;20982;-73
2023/08/21 10:07:46;;;;;;;7.53;6.67;;;40.60;65.90;;;;;;4994367;28;20426;-73
2023/08/21 10:10:12;;;;;;;7.93;7.07;;;40.30;65.00;;;;;;4993040;28;20417;-74
2023/08/21 10:12:37;;;;;;;7.77;7.10;;;40.20;66.10;;;;;;4993993;28;20450;-72
2023/08/21 10:15:03;;;;;;;8.13;7.53;;;40.70;64.30;;;;;;4994428;28;20978;-73
2023/08/21 10:17:31;;;;;;;8.87;8.10;;;41.60;62.90;;;;;;4994397;28;20184;-73
2023/08/21 10:20:05;;;;;;;8.20;7.57;;;42.50;60.40;;;;;;4992560;28;20443;-73
2023/08/21 10:22:44;;;;;;;9.00;7.80;;;43.00;59.20;;;;;;4993480;28;20480;-73
2023/08/21 10:25:26;;;;;;;8.27;7.63;;;42.60;58.70;;;;;;4990566;28;20458;-72
2023/08/21 10:27:56;;;;;;;10.13;7.67;;;42.30;58.40;;;;;;4991510;28;20426;-72
2023/08/21 10:30:24;;;;;;;8.40;7.80;;;42.10;58.10;;;;;;4992818;28;20438;-72
2023/08/21 10:32:53;;;;;;;7.60;6.60;;;41.90;58.30;;;;;;4993684;28;20797;-72
2023/08/21 10:35:20;;;;;;;9.30;8.50;;;41.20;58.20;;;;;;4992309;28;20493;-72
2023/08/21 10:38:06;;;;;;;7.63;6.90;;;41.10;58.10;;;;;;4994099;28;20484;-72
2023/08/21 10:40:32;;;;;;;8.40;7.70;;;42.10;57.50;;;;;;4993595;28;20493;-72
2023/08/21 10:42:59;;;;;;;11.43;7.87;;;43.10;56.70;;;;;;4994777;28;20466;-72
2023/08/21 10:45:24;;;;;;;8.43;7.83;;;43.70;55.50;;;;;;4994324;28;20461;-72
2023/08/21 10:47:50;;;;;;;8.43;6.83;;;44.40;54.40;;;;;;4994176;28;20848;-72
2023/08/21 10:50:16;;;;;;;8.10;7.50;;;44.50;53.80;;;;;;4990986;28;20230;-73
2023/08/21 10:52:45;;;;;;;8.27;7.57;;;44.70;53.50;;;;;;4990677;28;20187;-72
2023/08/21 10:55:12;;;;;;;8.13;7.50;;;45.10;52.50;;;;;;4986046;28;20485;-72
2023/08/21 10:57:41;;;;;;;8.90;8.30;;;45.10;51.20;;;;;;4992817;28;20427;-72
2023/08/21 11:00:11;;;;;;;8.50;7.90;;;43.80;52.20;;;;;;4993201;28;20886;-72
2023/08/21 11:02:39;;;;;;;8.10;7.50;;;43.60;52.10;;;;;;4993899;28;20462;-72
2023/08/21 11:05:07;;;;;;;8.93;8.07;;;42.40;53.10;;;;;;4993746;28;20438;-72
2023/08/21 11:07:47;;;;;;;8.40;7.40;;;43.70;52.60;;;;;;4992674;28;20446;-73
2023/08/21 11:10:14;;;;;;;7.87;7.37;;;44.30;51.90;;;;;;4992921;28;20433;-72
2023/08/21 11:12:52;;;;;;;10.33;9.47;;;45.10;51.00;;;;;;4993573;28;20524;-72
2023/08/21 11:15:18;;;;;;;8.40;7.83;;;44.90;51.10;;;;;;5019996;23;20535;-69
2023/08/21 11:17:51;;;;;;;9.87;8.97;;;45.30;50.60;;;;;;5013211;28;20426;-69
2023/08/21 11:20:17;;;;;;;8.97;8.27;;;44.90;50.00;;;;;;5012483;28;20414;-71
2023/08/21 11:22:42;;;;;;;9.10;8.03;;;44.30;50.60;;;;;;5013086;28;20461;-70
2023/08/21 11:25:08;;;;;;;8.63;8.03;;;44.50;50.40;;;;;;5012025;28;20297;-69
2023/08/21 11:27:34;;;;;;;8.17;7.67;;;46.00;49.70;;;;;;5013003;28;20178;-71
2023/08/21 11:30:00;;;;;;;8.90;8.00;;;47.00;48.40;;;;;;5009760;28;20293;-70
2023/08/21 11:32:26;;;;;;;8.40;7.80;;;47.00;47.70;;;;;;5011461;28;20175;-70
2023/08/21 11:34:53;;;;;;;8.47;7.77;;;46.60;47.40;;;;;;5006399;28;20545;-70
2023/08/21 11:37:21;;;;;;;9.10;8.20;;;45.60;48.20;;;;;;4992910;28;20251;-69
2023/08/21 11:39:58;;;;;;;8.23;7.63;;;45.10;48.80;;;;;;4998453;28;20441;-70
2023/08/21 11:42:33;;;;;;;8.60;7.80;;;44.60;49.10;;;;;;5012484;28;20422;-69
2023/08/21 11:45:00;;;;;;;8.30;7.47;;;45.40;48.10;;;;;;5012474;28;20441;-70
2023/08/21 11:47:31;;;;;;;7.43;6.90;;;46.50;47.30;;;;;;5012403;28;20984;-71
2023/08/21 11:50:02;;;;;;;7.50;7.00;;;47.50;46.50;;;;;;5011171;28;20422;-71
2023/08/21 11:52:31;;;;;;;8.97;8.40;;;46.90;45.50;;;;;;5012433;28;20418;-71
2023/08/21 11:54:57;;;;;;;8.80;8.03;;;45.60;46.70;;;;;;5011886;28;20477;-71
2023/08/21 11:57:22;;;;;;;10.07;8.80;;;44.00;48.30;;;;;;5010470;28;20465;-72
2023/08/21 11:59:53;;;;;;;8.67;8.07;;;43.90;48.60;;;;;;5010514;28;20202;-71
2023/08/21 12:02:24;;;;;;;9.30;8.60;;;44.20;48.80;;;;;;5005280;28;20213;-70
2023/08/21 12:04:53;;;;;;;9.33;8.73;;;44.50;48.50;;;;;;5005673;28;20441;-71
2023/08/21 12:07:19;;;;;;;10.37;8.67;;;45.50;47.30;;;;;;5011482;28;20504;-71
2023/08/21 12:09:51;;;;;;;8.93;7.80;;;47.20;46.90;;;;;;5011240;28;20445;-71
2023/08/21 12:12:17;;;;;;;10.00;8.27;;;48.10;45.90;;;;;;4993646;28;20178;-70
2023/08/21 12:14:42;;;;;;;8.20;7.43;;;49.00;44.90;;;;;;5009827;28;20466;-71
2023/08/21 12:17:08;;;;;;;8.20;7.60;;;49.50;43.40;;;;;;5012167;28;20533;-71
2023/08/21 12:19:33;;;;;;;8.87;8.13;;;49.50;43.00;;;;;;5006375;28;20493;-70
2023/08/21 12:21:59;;;;;;;8.00;7.60;;;47.70;43.70;;;;;;4997496;28;20258;-70
2023/08/21 12:24:25;;;;;;;8.13;7.40;;;46.90;44.40;;;;;;4990503;28;20199;-71
2023/08/21 12:26:50;;;;;;;8.50;7.83;;;47.10;44.60;;;;;;4992581;28;20175;-70
2023/08/21 12:29:16;;;;;;;8.20;7.53;;;46.60;44.70;;;;;;4996451;28;20190;-70
2023/08/21 12:31:41;;;;;;;8.77;7.97;;;45.10;45.40;;;;;;5010707;28;20262;-71
2023/08/21 12:34:07;;;;;;;8.20;6.83;;;44.60;46.10;;;;;;5010654;28;20213;-71
2023/08/21 12:36:39;;;;;;;7.77;7.23;;;45.30;45.60;;;;;;5011954;28;20170;-71
2023/08/21 12:39:06;;;;;;;8.17;7.57;;;45.10;45.70;;;;;;5010688;28;20170;-71
2023/08/21 12:41:35;;;;;;;8.43;7.77;;;43.60;46.70;;;;;;5011850;28;20505;-71